sensor_id;sensor_type;location;lat;lon;timestamp;temperature;humidity
6114;DHT22;3087;48.392;10.836;2023-01-28T00:00:07;1.40;99.90
6114;DHT22;3087;48.392;10.836;2023-01-28T00:02:39;1.50;99.90
6114;DHT22;3087;48.392;10.836;2023-01-28T00:05:06;1.30;99.90
6114;DHT22;3087;48.392;10.836;2023-01-28T00:07:36;1.30;99.90
6114;DHT22;3087;48.392;10.836;2023-01-28T00:10:02;1.30;99.90
6114;DHT22;3087;48.392;10.836;2023-01-28T00:12:28;1.30;99.90
6114;DHT22;3087;48.392;10.836;2023-01-28T00:14:54;1.30;99.90
6114;DHT22;3087;48.392;10.836;2023-01-28T00:17:21;1.30;99.90
6114;DHT22;3087;48.392;10.836;2023-01-28T00:19:48;1.30;99.90
6114;DHT22;3087;48.392;10.836;2023-01-28T00:22:15;1.40;99.90
6114;DHT22;3087;48.392;10.836;2023-01-28T00:24:44;1.30;99.90
6114;DHT22;3087;48.392;10.836;2023-01-28T00:27:14;1.40;99.90
6114;DHT22;3087;48.392;10.836;2023-01-28T00:29:41;1.40;99.90
6114;DHT22;3087;48.392;10.836;2023-01-28T00:32:07;1.40;99.90
6114;DHT22;3087;48.392;10.836;2023-01-28T00:34:32;1.30;99.90
6114;DHT22;3087;48.392;10.836;2023-01-28T00:36:58;1.30;99.90
6114;DHT22;3087;48.392;10.836;2023-01-28T00:39:25;1.30;99.90
6114;DHT22;3087;48.392;10.836;2023-01-28T00:41:53;1.30;99.90
6114;DHT22;3087;48.392;10.836;2023-01-28T00:44:19;1.30;99.90
6114;DHT22;3087;48.392;10.836;2023-01-28T00:46:48;1.40;99.90
6114;DHT22;3087;48.392;10.836;2023-01-28T00:49:13;1.40;99.90
6114;DHT22;3087;48.392;10.836;2023-01-28T00:51:40;1.50;99.90
6114;DHT22;3087;48.392;10.836;2023-01-28T00:54:07;1.40;99.90
6114;DHT22;3087;48.392;10.836;2023-01-28T00:56:33;1.40;99.90
6114;DHT22;3087;48.392;10.836;2023-01-28T00:58:59;1.40;99.90
6114;DHT22;3087;48.392;10.836;2023-01-28T01:01:26;1.40;99.90
6114;DHT22;3087;48.392;10.836;2023-01-28T01:03:54;1.30;99.90
6114;DHT22;3087;48.392;10.836;2023-01-28T01:06:29;1.30;99.90
6114;DHT22;3087;48.392;10.836;2023-01-28T01:08:56;1.30;99.90
6114;DHT22;3087;48.392;10.836;2023-01-28T01:11:24;1.40;99.90
6114;DHT22;3087;48.392;10.836;2023-01-28T01:14:11;1.40;99.90
6114;DHT22;3087;48.392;10.836;2023-01-28T01:16:37;1.40;99.90
6114;DHT22;3087;48.392;10.836;2023-01-28T01:19:03;1.30;99.90
6114;DHT22;3087;48.392;10.836;2023-01-28T01:21:32;1.40;99.90
6114;DHT22;3087;48.392;10.836;2023-01-28T01:23:59;1.40;99.90
6114;DHT22;3087;48.392;10.836;2023-01-28T01:26:25;1.30;99.90
6114;DHT22;3087;48.392;10.836;2023-01-28T01:28:52;1.40;99.90
6114;DHT22;3087;48.392;10.836;2023-01-28T01:31:19;1.40;99.90
6114;DHT22;3087;48.392;10.836;2023-01-28T01:33:49;1.40;99.90
6114;DHT22;3087;48.392;10.836;2023-01-28T01:36:22;1.40;99.90
6114;DHT22;3087;48.392;10.836;2023-01-28T01:38:53;1.40;99.90
6114;DHT22;3087;48.392;10.836;2023-01-28T01:41:26;1.40;99.90
6114;DHT22;3087;48.392;10.836;2023-01-28T01:43:58;1.40;99.90
6114;DHT22;3087;48.392;10.836;2023-01-28T01:46:46;1.30;99.90
6114;DHT22;3087;48.392;10.836;2023-01-28T01:49:26;1.40;99.90
6114;DHT22;3087;48.392;10.836;2023-01-28T01:52:01;1.30;99.90
6114;DHT22;3087;48.392;10.836;2023-01-28T01:54:29;1.50;99.90
6114;DHT22;3087;48.392;10.836;2023-01-28T01:56:58;1.50;99.90
6114;DHT22;3087;48.392;10.836;2023-01-28T01:59:29;1.50;99.90
6114;DHT22;3087;48.392;10.836;2023-01-28T02:01:59;1.40;99.90
6114;DHT22;3087;48.392;10.836;2023-01-28T02:04:38;1.70;99.90
6114;DHT22;3087;48.392;10.836;2023-01-28T02:07:08;1.50;99.90
6114;DHT22;3087;48.392;10.836;2023-01-28T02:09:37;1.50;99.90
6114;DHT22;3087;48.392;10.836;2023-01-28T02:12:15;1.50;99.90
6114;DHT22;3087;48.392;10.836;2023-01-28T02:14:56;1.50;99.90
6114;DHT22;3087;48.392;10.836;2023-01-28T02:17:24;1.50;99.90
6114;DHT22;3087;48.392;10.836;2023-01-28T02:28:44;1.50;99.90
6114;DHT22;3087;48.392;10.836;2023-01-28T02:31:19;1.50;99.90
6114;DHT22;3087;48.392;10.836;2023-01-28T02:36:52;1.50;99.90
6114;DHT22;3087;48.392;10.836;2023-01-28T02:39:28;1.50;99.90
6114;DHT22;3087;48.392;10.836;2023-01-28T02:42:03;1.50;99.90
6114;DHT22;3087;48.392;10.836;2023-01-28T02:44:31;1.50;99.90
6114;DHT22;3087;48.392;10.836;2023-01-28T02:46:56;1.40;99.90
6114;DHT22;3087;48.392;10.836;2023-01-28T02:49:46;1.40;99.90
6114;DHT22;3087;48.392;10.836;2023-01-28T02:55:52;1.50;99.90
6114;DHT22;3087;48.392;10.836;2023-01-28T03:01:27;1.50;99.90
6114;DHT22;3087;48.392;10.836;2023-01-28T03:04:10;1.50;99.90
6114;DHT22;3087;48.392;10.836;2023-01-28T03:06:40;1.50;99.90
6114;DHT22;3087;48.392;10.836;2023-01-28T03:09:10;1.50;99.90
6114;DHT22;3087;48.392;10.836;2023-01-28T03:14:38;1.70;99.90
6114;DHT22;3087;48.392;10.836;2023-01-28T03:23:33;4.50;99.90
6114;DHT22;3087;48.392;10.836;2023-01-28T03:26:21;1.80;99.90
6114;DHT22;3087;48.392;10.836;2023-01-28T03:29:09;1.80;99.90
6114;DHT22;3087;48.392;10.836;2023-01-28T03:31:56;1.90;99.90
6114;DHT22;3087;48.392;10.836;2023-01-28T03:34:42;1.90;99.90
6114;DHT22;3087;48.392;10.836;2023-01-28T03:37:27;1.90;99.90
6114;DHT22;3087;48.392;10.836;2023-01-28T03:39:54;1.90;99.90
6114;DHT22;3087;48.392;10.836;2023-01-28T03:42:22;1.80;99.90
6114;DHT22;3087;48.392;10.836;2023-01-28T03:44:48;1.80;99.90
6114;DHT22;3087;48.392;10.836;2023-01-28T03:47:22;1.90;99.90
6114;DHT22;3087;48.392;10.836;2023-01-28T03:49:49;2.00;99.90
6114;DHT22;3087;48.392;10.836;2023-01-28T03:52:17;2.00;99.90
6114;DHT22;3087;48.392;10.836;2023-01-28T03:54:44;2.00;99.90
6114;DHT22;3087;48.392;10.836;2023-01-28T03:57:12;2.00;99.90
6114;DHT22;3087;48.392;10.836;2023-01-28T03:59:37;2.00;99.90
6114;DHT22;3087;48.392;10.836;2023-01-28T04:02:03;2.00;99.90
6114;DHT22;3087;48.392;10.836;2023-01-28T04:04:30;-0.80;99.90
6114;DHT22;3087;48.392;10.836;2023-01-28T04:06:57;2.00;99.90
6114;DHT22;3087;48.392;10.836;2023-01-28T04:09:23;2.00;99.90
6114;DHT22;3087;48.392;10.836;2023-01-28T04:11:49;2.00;99.90
6114;DHT22;3087;48.392;10.836;2023-01-28T04:14:17;2.00;99.90
6114;DHT22;3087;48.392;10.836;2023-01-28T04:16:43;1.90;99.90
6114;DHT22;3087;48.392;10.836;2023-01-28T04:19:10;1.90;99.90
6114;DHT22;3087;48.392;10.836;2023-01-28T04:21:37;2.00;99.90
6114;DHT22;3087;48.392;10.836;2023-01-28T04:24:03;2.10;99.90
6114;DHT22;3087;48.392;10.836;2023-01-28T04:26:28;2.10;99.90
6114;DHT22;3087;48.392;10.836;2023-01-28T04:28:54;2.10;99.90
6114;DHT22;3087;48.392;10.836;2023-01-28T04:31:20;2.00;99.90
6114;DHT22;3087;48.392;10.836;2023-01-28T04:33:45;2.10;99.90
6114;DHT22;3087;48.392;10.836;2023-01-28T04:36:11;2.10;99.90
6114;DHT22;3087;48.392;10.836;2023-01-28T04:38:36;2.00;99.90
6114;DHT22;3087;48.392;10.836;2023-01-28T04:41:02;2.00;99.90
6114;DHT22;3087;48.392;10.836;2023-01-28T04:43:27;2.10;99.90
6114;DHT22;3087;48.392;10.836;2023-01-28T04:45:53;2.00;99.90
6114;DHT22;3087;48.392;10.836;2023-01-28T04:48:19;1.90;99.90
6114;DHT22;3087;48.392;10.836;2023-01-28T04:50:44;1.90;99.90
6114;DHT22;3087;48.392;10.836;2023-01-28T04:53:10;1.90;99.90
6114;DHT22;3087;48.392;10.836;2023-01-28T04:55:36;1.90;99.90
6114;DHT22;3087;48.392;10.836;2023-01-28T04:58:02;1.90;99.90
6114;DHT22;3087;48.392;10.836;2023-01-28T05:00:28;1.90;99.90
6114;DHT22;3087;48.392;10.836;2023-01-28T05:02:53;2.00;99.90
6114;DHT22;3087;48.392;10.836;2023-01-28T05:05:19;2.00;99.90
6114;DHT22;3087;48.392;10.836;2023-01-28T05:07:51;2.00;99.90
6114;DHT22;3087;48.392;10.836;2023-01-28T05:10:17;1.90;99.90
6114;DHT22;3087;48.392;10.836;2023-01-28T05:12:44;1.90;99.90
6114;DHT22;3087;48.392;10.836;2023-01-28T05:15:10;2.00;99.90
6114;DHT22;3087;48.392;10.836;2023-01-28T05:17:35;2.00;99.90
6114;DHT22;3087;48.392;10.836;2023-01-28T05:20:01;2.10;99.90
6114;DHT22;3087;48.392;10.836;2023-01-28T05:22:28;2.10;99.90
6114;DHT22;3087;48.392;10.836;2023-01-28T05:24:53;2.00;99.90
6114;DHT22;3087;48.392;10.836;2023-01-28T05:27:19;1.90;99.90
6114;DHT22;3087;48.392;10.836;2023-01-28T05:29:45;2.00;99.90
6114;DHT22;3087;48.392;10.836;2023-01-28T05:32:10;1.90;99.90
6114;DHT22;3087;48.392;10.836;2023-01-28T05:34:36;1.90;99.90
6114;DHT22;3087;48.392;10.836;2023-01-28T05:37:02;2.00;99.90
6114;DHT22;3087;48.392;10.836;2023-01-28T05:39:27;2.00;99.90
6114;DHT22;3087;48.392;10.836;2023-01-28T05:41:53;2.00;99.90
6114;DHT22;3087;48.392;10.836;2023-01-28T05:44:18;2.00;99.90
6114;DHT22;3087;48.392;10.836;2023-01-28T05:46:44;2.00;99.90
6114;DHT22;3087;48.392;10.836;2023-01-28T05:49:11;2.10;99.90
6114;DHT22;3087;48.392;10.836;2023-01-28T05:51:38;2.20;99.90
6114;DHT22;3087;48.392;10.836;2023-01-28T05:54:05;2.20;99.90
6114;DHT22;3087;48.392;10.836;2023-01-28T05:56:31;2.30;99.90
6114;DHT22;3087;48.392;10.836;2023-01-28T05:58:56;2.30;99.90
6114;DHT22;3087;48.392;10.836;2023-01-28T06:01:22;2.30;99.90
6114;DHT22;3087;48.392;10.836;2023-01-28T06:03:48;2.30;99.90
6114;DHT22;3087;48.392;10.836;2023-01-28T06:06:13;2.30;99.90
6114;DHT22;3087;48.392;10.836;2023-01-28T06:08:40;2.30;99.90
6114;DHT22;3087;48.392;10.836;2023-01-28T06:11:05;2.40;99.90
6114;DHT22;3087;48.392;10.836;2023-01-28T06:13:31;2.30;99.90
6114;DHT22;3087;48.392;10.836;2023-01-28T06:15:56;2.30;99.90
6114;DHT22;3087;48.392;10.836;2023-01-28T06:18:22;2.30;99.90
6114;DHT22;3087;48.392;10.836;2023-01-28T06:20:48;2.30;99.90
6114;DHT22;3087;48.392;10.836;2023-01-28T06:23:14;2.30;99.90
6114;DHT22;3087;48.392;10.836;2023-01-28T06:25:40;2.30;99.90
6114;DHT22;3087;48.392;10.836;2023-01-28T06:28:05;2.30;99.90
6114;DHT22;3087;48.392;10.836;2023-01-28T06:30:31;2.30;99.90
6114;DHT22;3087;48.392;10.836;2023-01-28T06:32:56;2.20;99.90
6114;DHT22;3087;48.392;10.836;2023-01-28T06:35:22;1.90;99.90
6114;DHT22;3087;48.392;10.836;2023-01-28T06:37:48;1.90;99.90
6114;DHT22;3087;48.392;10.836;2023-01-28T06:40:14;1.80;99.90
6114;DHT22;3087;48.392;10.836;2023-01-28T06:42:39;1.80;99.90
6114;DHT22;3087;48.392;10.836;2023-01-28T06:45:05;1.60;99.90
6114;DHT22;3087;48.392;10.836;2023-01-28T06:47:31;1.60;99.90
6114;DHT22;3087;48.392;10.836;2023-01-28T06:49:56;1.70;99.90
6114;DHT22;3087;48.392;10.836;2023-01-28T06:52:22;1.80;99.90
6114;DHT22;3087;48.392;10.836;2023-01-28T06:54:47;4.10;99.90
6114;DHT22;3087;48.392;10.836;2023-01-28T06:57:13;2.00;99.90
6114;DHT22;3087;48.392;10.836;2023-01-28T06:59:38;2.20;99.90
6114;DHT22;3087;48.392;10.836;2023-01-28T07:02:04;2.30;99.90
6114;DHT22;3087;48.392;10.836;2023-01-28T07:04:30;2.30;99.90
6114;DHT22;3087;48.392;10.836;2023-01-28T07:06:56;2.30;99.90
6114;DHT22;3087;48.392;10.836;2023-01-28T07:09:21;2.30;99.90
6114;DHT22;3087;48.392;10.836;2023-01-28T07:11:47;2.40;99.90
6114;DHT22;3087;48.392;10.836;2023-01-28T07:14:12;2.30;99.90
6114;DHT22;3087;48.392;10.836;2023-01-28T07:16:38;2.30;99.90
6114;DHT22;3087;48.392;10.836;2023-01-28T07:19:03;2.30;99.90
6114;DHT22;3087;48.392;10.836;2023-01-28T07:21:29;2.30;99.90
6114;DHT22;3087;48.392;10.836;2023-01-28T07:23:55;2.30;99.90
6114;DHT22;3087;48.392;10.836;2023-01-28T07:26:21;2.30;99.90
6114;DHT22;3087;48.392;10.836;2023-01-28T07:28:46;2.20;99.90
6114;DHT22;3087;48.392;10.836;2023-01-28T07:31:12;2.10;99.90
6114;DHT22;3087;48.392;10.836;2023-01-28T07:33:37;2.20;99.90
6114;DHT22;3087;48.392;10.836;2023-01-28T07:36:03;2.20;99.90
6114;DHT22;3087;48.392;10.836;2023-01-28T07:38:29;2.30;99.90
6114;DHT22;3087;48.392;10.836;2023-01-28T07:40:54;2.30;99.90
6114;DHT22;3087;48.392;10.836;2023-01-28T07:43:20;2.30;99.90
6114;DHT22;3087;48.392;10.836;2023-01-28T07:45:46;2.30;99.90
6114;DHT22;3087;48.392;10.836;2023-01-28T07:48:12;2.30;99.90
6114;DHT22;3087;48.392;10.836;2023-01-28T07:50:40;2.30;99.90
6114;DHT22;3087;48.392;10.836;2023-01-28T07:53:08;2.30;99.90
6114;DHT22;3087;48.392;10.836;2023-01-28T07:55:36;2.40;99.90
6114;DHT22;3087;48.392;10.836;2023-01-28T07:58:03;2.40;99.90
6114;DHT22;3087;48.392;10.836;2023-01-28T08:00:31;2.30;99.90
6114;DHT22;3087;48.392;10.836;2023-01-28T08:03:02;2.30;99.90
6114;DHT22;3087;48.392;10.836;2023-01-28T08:05:36;2.20;99.90
6114;DHT22;3087;48.392;10.836;2023-01-28T08:08:03;2.20;99.90
6114;DHT22;3087;48.392;10.836;2023-01-28T08:10:29;2.20;99.90
6114;DHT22;3087;48.392;10.836;2023-01-28T08:12:56;2.20;99.90
6114;DHT22;3087;48.392;10.836;2023-01-28T08:15:27;2.20;99.90
6114;DHT22;3087;48.392;10.836;2023-01-28T08:17:54;2.20;99.90
6114;DHT22;3087;48.392;10.836;2023-01-28T08:20:20;2.20;99.90
6114;DHT22;3087;48.392;10.836;2023-01-28T08:22:46;2.20;99.90
6114;DHT22;3087;48.392;10.836;2023-01-28T08:25:12;2.30;99.90
6114;DHT22;3087;48.392;10.836;2023-01-28T08:27:38;2.40;99.90
6114;DHT22;3087;48.392;10.836;2023-01-28T08:30:04;2.50;99.90
6114;DHT22;3087;48.392;10.836;2023-01-28T08:32:30;2.50;99.90
6114;DHT22;3087;48.392;10.836;2023-01-28T08:34:56;2.60;99.90
6114;DHT22;3087;48.392;10.836;2023-01-28T08:37:22;2.70;99.90
6114;DHT22;3087;48.392;10.836;2023-01-28T08:39:47;2.70;99.90
6114;DHT22;3087;48.392;10.836;2023-01-28T08:42:13;2.80;99.90
6114;DHT22;3087;48.392;10.836;2023-01-28T08:44:39;2.80;99.90
6114;DHT22;3087;48.392;10.836;2023-01-28T08:47:04;2.80;99.90
6114;DHT22;3087;48.392;10.836;2023-01-28T08:49:30;2.80;99.90
6114;DHT22;3087;48.392;10.836;2023-01-28T08:51:55;2.80;99.90
6114;DHT22;3087;48.392;10.836;2023-01-28T08:54:21;2.70;99.90
6114;DHT22;3087;48.392;10.836;2023-01-28T08:56:46;2.70;99.90
6114;DHT22;3087;48.392;10.836;2023-01-28T08:59:13;2.70;99.90
6114;DHT22;3087;48.392;10.836;2023-01-28T09:01:39;2.70;99.90
6114;DHT22;3087;48.392;10.836;2023-01-28T09:04:05;2.60;99.90
6114;DHT22;3087;48.392;10.836;2023-01-28T09:06:31;2.60;99.90
6114;DHT22;3087;48.392;10.836;2023-01-28T09:08:57;2.60;99.90
6114;DHT22;3087;48.392;10.836;2023-01-28T09:11:23;2.60;99.90
6114;DHT22;3087;48.392;10.836;2023-01-28T09:13:49;2.60;99.90
6114;DHT22;3087;48.392;10.836;2023-01-28T09:16:15;3.30;99.90
6114;DHT22;3087;48.392;10.836;2023-01-28T09:18:40;2.70;99.90
6114;DHT22;3087;48.392;10.836;2023-01-28T09:21:07;2.70;99.90
6114;DHT22;3087;48.392;10.836;2023-01-28T09:23:36;2.60;99.90
6114;DHT22;3087;48.392;10.836;2023-01-28T09:26:04;2.70;99.90
6114;DHT22;3087;48.392;10.836;2023-01-28T09:28:30;2.70;99.90
6114;DHT22;3087;48.392;10.836;2023-01-28T09:31:07;2.90;99.90
6114;DHT22;3087;48.392;10.836;2023-01-28T09:33:33;3.00;99.90
6114;DHT22;3087;48.392;10.836;2023-01-28T09:36:00;3.10;99.90
6114;DHT22;3087;48.392;10.836;2023-01-28T09:38:26;3.20;99.90
6114;DHT22;3087;48.392;10.836;2023-01-28T09:40:52;3.10;99.90
6114;DHT22;3087;48.392;10.836;2023-01-28T09:46:22;3.10;99.90
6114;DHT22;3087;48.392;10.836;2023-01-28T09:48:52;3.10;99.90
6114;DHT22;3087;48.392;10.836;2023-01-28T09:51:32;3.20;99.90
6114;DHT22;3087;48.392;10.836;2023-01-28T09:54:05;3.30;99.90
6114;DHT22;3087;48.392;10.836;2023-01-28T09:56:39;3.30;99.90
6114;DHT22;3087;48.392;10.836;2023-01-28T09:59:21;3.10;99.90
6114;DHT22;3087;48.392;10.836;2023-01-28T10:01:57;3.00;99.90
6114;DHT22;3087;48.392;10.836;2023-01-28T10:04:44;3.00;99.90
6114;DHT22;3087;48.392;10.836;2023-01-28T10:07:33;3.00;99.90
6114;DHT22;3087;48.392;10.836;2023-01-28T10:10:46;3.10;99.90
6114;DHT22;3087;48.392;10.836;2023-01-28T10:13:35;3.10;99.90
6114;DHT22;3087;48.392;10.836;2023-01-28T10:18:55;4.00;99.90
6114;DHT22;3087;48.392;10.836;2023-01-28T10:21:46;3.40;99.90
6114;DHT22;3087;48.392;10.836;2023-01-28T10:24:24;3.60;99.90
6114;DHT22;3087;48.392;10.836;2023-01-28T10:26:52;3.70;99.90
6114;DHT22;3087;48.392;10.836;2023-01-28T10:29:26;3.80;99.90
6114;DHT22;3087;48.392;10.836;2023-01-28T10:32:04;3.90;99.90
6114;DHT22;3087;48.392;10.836;2023-01-28T10:34:36;3.90;99.90
6114;DHT22;3087;48.392;10.836;2023-01-28T10:37:01;3.80;99.90
6114;DHT22;3087;48.392;10.836;2023-01-28T10:39:27;3.90;99.90
6114;DHT22;3087;48.392;10.836;2023-01-28T10:41:54;3.80;99.90
6114;DHT22;3087;48.392;10.836;2023-01-28T10:44:40;3.80;99.90
6114;DHT22;3087;48.392;10.836;2023-01-28T10:47:14;3.80;99.90
6114;DHT22;3087;48.392;10.836;2023-01-28T10:49:44;3.80;99.90
6114;DHT22;3087;48.392;10.836;2023-01-28T10:52:12;3.80;99.90
6114;DHT22;3087;48.392;10.836;2023-01-28T10:54:38;3.90;99.90
6114;DHT22;3087;48.392;10.836;2023-01-28T10:57:09;3.90;99.90
6114;DHT22;3087;48.392;10.836;2023-01-28T10:59:37;3.70;99.90
6114;DHT22;3087;48.392;10.836;2023-01-28T11:04:47;3.90;99.90
6114;DHT22;3087;48.392;10.836;2023-01-28T11:07:18;3.50;99.90
6114;DHT22;3087;48.392;10.836;2023-01-28T11:09:46;3.30;99.90
6114;DHT22;3087;48.392;10.836;2023-01-28T11:12:16;3.20;99.90
6114;DHT22;3087;48.392;10.836;2023-01-28T11:15:15;3.20;99.90
6114;DHT22;3087;48.392;10.836;2023-01-28T11:17:47;3.40;99.90
6114;DHT22;3087;48.392;10.836;2023-01-28T11:20:21;3.50;99.90
6114;DHT22;3087;48.392;10.836;2023-01-28T11:22:47;3.50;99.90
6114;DHT22;3087;48.392;10.836;2023-01-28T11:25:26;3.60;99.90
6114;DHT22;3087;48.392;10.836;2023-01-28T11:27:54;3.50;99.90
6114;DHT22;3087;48.392;10.836;2023-01-28T11:30:26;3.70;99.90
6114;DHT22;3087;48.392;10.836;2023-01-28T11:33:01;3.90;99.90
6114;DHT22;3087;48.392;10.836;2023-01-28T11:35:29;4.10;99.90
6114;DHT22;3087;48.392;10.836;2023-01-28T11:37:59;4.20;99.90
6114;DHT22;3087;48.392;10.836;2023-01-28T11:40:25;4.10;99.90
6114;DHT22;3087;48.392;10.836;2023-01-28T11:42:52;4.10;99.90
6114;DHT22;3087;48.392;10.836;2023-01-28T11:45:51;4.00;99.90
6114;DHT22;3087;48.392;10.836;2023-01-28T11:56:26;3.90;99.90
6114;DHT22;3087;48.392;10.836;2023-01-28T12:09:55;3.90;99.90
6114;DHT22;3087;48.392;10.836;2023-01-28T12:26:37;3.80;99.90
6114;DHT22;3087;48.392;10.836;2023-01-28T12:29:38;3.90;99.90
6114;DHT22;3087;48.392;10.836;2023-01-28T12:32:24;3.80;99.90
6114;DHT22;3087;48.392;10.836;2023-01-28T12:35:49;3.70;99.90
6114;DHT22;3087;48.392;10.836;2023-01-28T12:38:34;3.60;99.90
6114;DHT22;3087;48.392;10.836;2023-01-28T12:41:17;3.60;99.90
6114;DHT22;3087;48.392;10.836;2023-01-28T12:43:55;3.50;99.90
6114;DHT22;3087;48.392;10.836;2023-01-28T12:49:07;3.60;99.90
6114;DHT22;3087;48.392;10.836;2023-01-28T12:51:53;3.70;99.90
6114;DHT22;3087;48.392;10.836;2023-01-28T12:56:54;3.60;99.90
6114;DHT22;3087;48.392;10.836;2023-01-28T12:59:31;3.70;99.90
6114;DHT22;3087;48.392;10.836;2023-01-28T13:05:08;3.80;99.90
6114;DHT22;3087;48.392;10.836;2023-01-28T13:07:55;3.90;99.90
6114;DHT22;3087;48.392;10.836;2023-01-28T13:10:43;3.80;99.90
6114;DHT22;3087;48.392;10.836;2023-01-28T13:13:28;3.70;99.90
6114;DHT22;3087;48.392;10.836;2023-01-28T13:15:55;3.70;99.90
6114;DHT22;3087;48.392;10.836;2023-01-28T13:21:06;3.70;99.90
6114;DHT22;3087;48.392;10.836;2023-01-28T13:28:46;3.50;99.90
6114;DHT22;3087;48.392;10.836;2023-01-28T13:31:14;3.40;99.90
6114;DHT22;3087;48.392;10.836;2023-01-28T13:36:27;3.50;99.90
6114;DHT22;3087;48.392;10.836;2023-01-28T13:41:46;3.60;99.90
6114;DHT22;3087;48.392;10.836;2023-01-28T13:46:55;3.90;99.90
6114;DHT22;3087;48.392;10.836;2023-01-28T13:49:33;4.00;99.90
6114;DHT22;3087;48.392;10.836;2023-01-28T14:11:38;4.00;99.90
6114;DHT22;3087;48.392;10.836;2023-01-28T14:16:59;4.00;99.90
6114;DHT22;3087;48.392;10.836;2023-01-28T14:19:31;4.10;99.90
6114;DHT22;3087;48.392;10.836;2023-01-28T14:21:57;4.10;99.90
6114;DHT22;3087;48.392;10.836;2023-01-28T14:24:23;7.80;99.90
6114;DHT22;3087;48.392;10.836;2023-01-28T14:26:55;4.00;99.90
6114;DHT22;3087;48.392;10.836;2023-01-28T14:32:21;3.80;99.90
6114;DHT22;3087;48.392;10.836;2023-01-28T14:34:49;3.80;99.90
6114;DHT22;3087;48.392;10.836;2023-01-28T14:37:18;3.70;99.90
6114;DHT22;3087;48.392;10.836;2023-01-28T14:39:50;3.60;99.90
6114;DHT22;3087;48.392;10.836;2023-01-28T14:42:20;3.50;99.90
6114;DHT22;3087;48.392;10.836;2023-01-28T14:45:13;3.50;99.90
6114;DHT22;3087;48.392;10.836;2023-01-28T14:47:50;3.40;99.90
6114;DHT22;3087;48.392;10.836;2023-01-28T14:50:35;3.50;99.90
6114;DHT22;3087;48.392;10.836;2023-01-28T14:58:42;3.40;99.90
6114;DHT22;3087;48.392;10.836;2023-01-28T15:01:29;3.40;99.90
6114;DHT22;3087;48.392;10.836;2023-01-28T15:03:55;3.50;99.90
6114;DHT22;3087;48.392;10.836;2023-01-28T15:06:24;3.60;99.90
6114;DHT22;3087;48.392;10.836;2023-01-28T15:08:51;3.70;99.90
6114;DHT22;3087;48.392;10.836;2023-01-28T15:11:19;3.70;99.90
6114;DHT22;3087;48.392;10.836;2023-01-28T15:13:48;3.60;99.90
6114;DHT22;3087;48.392;10.836;2023-01-28T15:16:23;3.60;99.90
6114;DHT22;3087;48.392;10.836;2023-01-28T15:18:50;3.60;99.90
6114;DHT22;3087;48.392;10.836;2023-01-28T15:21:21;3.70;99.90
6114;DHT22;3087;48.392;10.836;2023-01-28T15:23:52;3.70;99.90
6114;DHT22;3087;48.392;10.836;2023-01-28T15:26:21;3.80;99.90
6114;DHT22;3087;48.392;10.836;2023-01-28T15:28:48;3.60;99.90
6114;DHT22;3087;48.392;10.836;2023-01-28T15:31:24;3.50;99.90
6114;DHT22;3087;48.392;10.836;2023-01-28T15:36:25;3.40;99.90
6114;DHT22;3087;48.392;10.836;2023-01-28T15:38:52;3.80;99.90
6114;DHT22;3087;48.392;10.836;2023-01-28T15:41:20;3.50;99.90
6114;DHT22;3087;48.392;10.836;2023-01-28T15:43:49;3.70;99.90
6114;DHT22;3087;48.392;10.836;2023-01-28T15:46:17;3.50;99.90
6114;DHT22;3087;48.392;10.836;2023-01-28T15:48:57;3.50;99.90
6114;DHT22;3087;48.392;10.836;2023-01-28T15:51:26;3.50;99.90
6114;DHT22;3087;48.392;10.836;2023-01-28T15:53:57;3.40;99.90
6114;DHT22;3087;48.392;10.836;2023-01-28T15:59:45;3.50;99.90
6114;DHT22;3087;48.392;10.836;2023-01-28T16:02:20;3.60;99.90
6114;DHT22;3087;48.392;10.836;2023-01-28T16:05:00;3.60;99.90
6114;DHT22;3087;48.392;10.836;2023-01-28T16:07:28;3.60;99.90
6114;DHT22;3087;48.392;10.836;2023-01-28T16:09:56;3.60;99.90
6114;DHT22;3087;48.392;10.836;2023-01-28T16:12:22;3.50;99.90
6114;DHT22;3087;48.392;10.836;2023-01-28T16:17:22;3.50;99.90
6114;DHT22;3087;48.392;10.836;2023-01-28T16:19:55;3.70;99.90
6114;DHT22;3087;48.392;10.836;2023-01-28T16:22:32;3.60;99.90
6114;DHT22;3087;48.392;10.836;2023-01-28T16:24:58;3.70;99.90
6114;DHT22;3087;48.392;10.836;2023-01-28T16:27:26;4.30;99.90
6114;DHT22;3087;48.392;10.836;2023-01-28T16:29:52;3.80;99.90
6114;DHT22;3087;48.392;10.836;2023-01-28T16:32:36;3.80;99.90
6114;DHT22;3087;48.392;10.836;2023-01-28T16:35:11;3.80;99.90
6114;DHT22;3087;48.392;10.836;2023-01-28T16:37:37;3.70;99.90
6114;DHT22;3087;48.392;10.836;2023-01-28T16:40:03;3.20;99.90
6114;DHT22;3087;48.392;10.836;2023-01-28T16:42:30;3.70;99.90
6114;DHT22;3087;48.392;10.836;2023-01-28T16:44:56;3.70;99.90
6114;DHT22;3087;48.392;10.836;2023-01-28T16:47:23;3.70;99.90
6114;DHT22;3087;48.392;10.836;2023-01-28T16:49:48;3.70;99.90
6114;DHT22;3087;48.392;10.836;2023-01-28T16:52:14;3.70;99.90
6114;DHT22;3087;48.392;10.836;2023-01-28T16:54:41;3.70;99.90
6114;DHT22;3087;48.392;10.836;2023-01-28T16:57:13;3.70;99.90
6114;DHT22;3087;48.392;10.836;2023-01-28T16:59:40;3.80;99.90
6114;DHT22;3087;48.392;10.836;2023-01-28T17:02:07;3.80;99.90
6114;DHT22;3087;48.392;10.836;2023-01-28T17:04:33;3.80;99.90
6114;DHT22;3087;48.392;10.836;2023-01-28T17:06:58;3.80;99.90
6114;DHT22;3087;48.392;10.836;2023-01-28T17:09:28;3.80;99.90
6114;DHT22;3087;48.392;10.836;2023-01-28T17:11:56;3.80;99.90
6114;DHT22;3087;48.392;10.836;2023-01-28T17:14:24;3.70;99.90
6114;DHT22;3087;48.392;10.836;2023-01-28T17:16:50;3.70;99.90
6114;DHT22;3087;48.392;10.836;2023-01-28T17:19:16;3.60;99.90
6114;DHT22;3087;48.392;10.836;2023-01-28T17:21:42;3.50;99.90
6114;DHT22;3087;48.392;10.836;2023-01-28T17:24:07;3.50;99.90
6114;DHT22;3087;48.392;10.836;2023-01-28T17:26:34;3.50;99.90
6114;DHT22;3087;48.392;10.836;2023-01-28T17:29:01;4.00;99.90
6114;DHT22;3087;48.392;10.836;2023-01-28T17:31:26;3.60;99.90
6114;DHT22;3087;48.392;10.836;2023-01-28T17:33:54;3.60;99.90
6114;DHT22;3087;48.392;10.836;2023-01-28T17:36:20;3.70;99.90
6114;DHT22;3087;48.392;10.836;2023-01-28T17:38:46;3.70;99.90
6114;DHT22;3087;48.392;10.836;2023-01-28T17:41:12;3.60;99.90
6114;DHT22;3087;48.392;10.836;2023-01-28T17:43:38;3.50;99.90
6114;DHT22;3087;48.392;10.836;2023-01-28T17:46:14;3.50;99.90
6114;DHT22;3087;48.392;10.836;2023-01-28T17:48:40;3.50;99.90
6114;DHT22;3087;48.392;10.836;2023-01-28T17:51:07;3.60;99.90
6114;DHT22;3087;48.392;10.836;2023-01-28T17:53:32;3.60;99.90
6114;DHT22;3087;48.392;10.836;2023-01-28T17:55:58;3.60;99.90
6114;DHT22;3087;48.392;10.836;2023-01-28T17:58:24;3.70;99.90
6114;DHT22;3087;48.392;10.836;2023-01-28T18:00:49;3.70;99.90
6114;DHT22;3087;48.392;10.836;2023-01-28T18:03:15;4.20;99.90
6114;DHT22;3087;48.392;10.836;2023-01-28T18:05:41;3.70;99.90
6114;DHT22;3087;48.392;10.836;2023-01-28T18:08:07;3.70;99.90
6114;DHT22;3087;48.392;10.836;2023-01-28T18:10:33;3.70;99.90
6114;DHT22;3087;48.392;10.836;2023-01-28T18:12:59;3.70;99.90
6114;DHT22;3087;48.392;10.836;2023-01-28T18:15:25;3.60;99.90
6114;DHT22;3087;48.392;10.836;2023-01-28T18:17:51;3.60;99.90
6114;DHT22;3087;48.392;10.836;2023-01-28T18:20:16;3.60;99.90
6114;DHT22;3087;48.392;10.836;2023-01-28T18:22:43;3.50;99.90
6114;DHT22;3087;48.392;10.836;2023-01-28T18:25:14;3.60;99.90
6114;DHT22;3087;48.392;10.836;2023-01-28T18:27:40;3.60;99.90
6114;DHT22;3087;48.392;10.836;2023-01-28T18:30:07;3.60;99.90